Ship Status Report: callsign AMOUK35

sailwx.info

Track history (hours):
 
Tides and Currents Weather Stations Pressure Air Temp Water Temp Dewpoint Dewpoint Depression Visibility Wind Speed Wind Dir Waves Ship Positions

Callsign AMOUK35 (name unknown)

Last reported at 2014-Dec-09 23:00 UTC. Time now 2014-Dec-19 16:32 UTC.
Position N 56°24' W 005°30'.
Warning: this ship's position is 9 days out of date.

Barometer 997.2 mb
Air temperature 5.6 ° C
Dewpoint 0.2 ° C

Date/timePositionNaut miles runAvg speedWind from/ knotsBaromVisibWave heightAir tempDewpointWater temp
2014-Dec-09 23:00N 56°24' W 005°30'0 0.0 997.2 5.6 0.2
2014-Dec-09 18:00N 56°24' W 005°30'0 0.0 998.6 5.9 2.3
2014-Dec-09 11:00N 56°24' W 005°30'0 0.0 1003.9 8.8 6.7
2014-Dec-09 10:00N 56°24' W 005°30'0 0.0 1005.8 8.3 5.9
2014-Dec-09 04:00N 56°24' W 005°30'0 0.0 1018.4 6.3 3.3
2014-Dec-09 02:00N 56°24' W 005°30'0 0.0 1021.1 5.6 2.5
2014-Dec-08 22:00N 56°24' W 005°30'0 0.0 1023.3 3.2 0.9
2014-Dec-08 21:00N 56°24' W 005°30'0 0.0 1022.9 2.8 0.6
2014-Dec-08 17:00N 56°24' W 005°30'0 0.0 1021.3 5.6 1.7
2014-Dec-08 14:00N 56°24' W 005°30'1413.7 1018.7 5.9 1.9
2014-Dec-08 13:00N 56°12' W 005°42'6 6.0 1018.1 5.4 2.0
2014-Dec-08 12:00N 56°06' W 005°42'1212.5 1017.2 6.2 1.7
2014-Dec-08 11:00N 55°54' W 005°48'7 6.9 1016.2 5.8 1.6
2014-Dec-08 10:00N 55°48' W 005°54'7 6.9 1014.7 7.9 2.7
2014-Dec-08 09:00N 55°42' W 006°00'0 0.0 1014.0 6.2 1.4
2014-Dec-08 08:00N 55°42' W 006°00'0 0.0 1012.7 6.2 1.5
2014-Dec-08 07:00N 55°42' W 006°00'0 0.0 1011.5 6.0 1.5
2014-Dec-08 06:00N 55°42' W 006°00'0 0.0 1011.0 4.1 0.6
2014-Dec-08 05:00N 55°42' W 006°00'0 0.0 1010.3 6.4 0.2
2014-Dec-08 04:00N 55°42' W 006°00'0 0.0 1010.4 5.2 0.6
2014-Dec-08 03:00N 55°42' W 006°00'0 0.0 1010.8 4.7 0.8
2014-Dec-08 02:00N 55°42' W 006°00'0 0.0 1010.1 4.9 0.3
2014-Dec-08 01:00N 55°42' W 006°00'0 0.0 1010.0 5.0 0.6
2014-Dec-08 00:00N 55°42' W 006°00'0 0.0 1009.8 5.1 1.4
2014-Dec-07 23:00N 55°42' W 006°00'0 0.0 1009.7 5.8 1.2
2014-Dec-07 22:00N 55°42' W 006°00'0 0.0 1009.9 5.7 1.6
2014-Dec-07 21:00N 55°42' W 006°00'0 0.0 1009.6 5.9 0.8
2014-Dec-07 20:00N 55°42' W 006°00'0 0.0 1009.9 5.0 1.3
2014-Dec-07 19:00N 55°42' W 006°00'0 0.0 1009.7 5.1-0.0
2014-Dec-07 18:00N 55°42' W 006°00'0 0.0 1009.3 5.7 0.6
2014-Dec-07 17:00N 55°42' W 006°00'0 0.0 1008.9 6.7 0.6
2014-Dec-07 16:00N 55°42' W 006°00'0 0.0 1008.7 5.6 1.2
2014-Dec-07 15:00N 55°42' W 006°00'0 0.0 1008.5 6.4 1.7
2014-Dec-07 14:00N 55°42' W 006°00'0 0.0 1008.8 5.3 1.3
2014-Dec-07 13:00N 55°42' W 006°00'0 0.0 1008.4 6.5 0.2
2014-Dec-07 12:00N 55°42' W 006°00'0 0.0 1008.7 6.4 1.2
2014-Dec-07 11:00N 55°42' W 006°00'0 0.0 1009.0 5.6 0.4
2014-Dec-07 10:00N 55°42' W 006°00'0 0.0 1008.6 6.1-0.1
2014-Dec-07 09:00N 55°42' W 006°00'0 0.0 1008.5 4.7 0.4
2014-Dec-07 08:00N 55°42' W 006°00'0 0.0 1008.1 3.8 0.8
2014-Dec-07 07:00N 55°42' W 006°00'0 0.0 1007.8 5.0-0.3
2014-Dec-07 06:00N 55°42' W 006°00'0 0.0 1007.4 5.0 0.8
2014-Dec-07 05:00N 55°42' W 006°00'0 0.0 1006.9 6.8 0.8
2014-Dec-07 04:00N 55°42' W 006°00'0 0.0 1007.5 6.8 2.4
2014-Dec-07 03:00N 55°42' W 006°00'0 0.0 1007.1 7.4 3.5
2014-Dec-07 02:00N 55°42' W 006°00'0 0.0 1007.3 8.3 4.7
2014-Dec-07 01:00N 55°42' W 006°00'0 0.0 1008.1 8.3 5.6
2014-Dec-07 00:00N 55°42' W 006°00'0 0.0 1008.6 10.0 6.5
2014-Dec-06 23:00N 55°42' W 006°00'0 0.0 1009.5 9.8 6.5
2014-Dec-06 22:00N 55°42' W 006°00'0 0.0 1010.4 10.1 7.3
2014-Dec-06 21:00N 55°42' W 006°00'0 0.0 1011.4 9.9 6.2
2014-Dec-06 20:00N 55°42' W 006°00'0 0.0 1012.7 9.3 6.9
2014-Dec-06 19:00N 55°42' W 006°00'0 0.0 1013.4 9.9 7.6
2014-Dec-06 18:00N 55°42' W 006°00'0 0.0 1013.3 9.8 7.7
2014-Dec-06 17:00N 55°42' W 006°00'0 0.0 1014.1 11.1 8.9
2014-Dec-06 16:00N 55°42' W 006°00'0 0.0 1014.9 11.2 9.0
2014-Dec-06 15:00N 55°42' W 006°00'6 6.0 1016.0 11.2 9.1
2014-Dec-06 14:00N 55°36' W 006°00'9 9.1 1017.7 10.2 8.6
2014-Dec-06 13:00N 55°30' W 006°12'9 9.1 1018.4 10.5 8.4
2014-Dec-06 12:00N 55°24' W 006°00'9 9.1 1019.9 9.5 7.1
2014-Dec-06 11:00N 55°18' W 005°48'1010.2 1021.6 9.1 6.3
2014-Dec-06 10:00N 55°18' W 005°30'6 6.0 1021.2 8.2 6.2
2014-Dec-06 09:00N 55°24' W 005°30'0 0.0 1022.6 9.2 5.7
2014-Dec-06 08:00N 55°24' W 005°30'0 0.0 1023.1 9.3 5.7
2014-Dec-06 07:00N 55°24' W 005°30'0 0.0 1024.0 9.1 5.8
2014-Dec-06 06:00N 55°24' W 005°30'0 0.0 1024.5 8.3 5.7
2014-Dec-06 05:00N 55°24' W 005°30'0 0.0 1025.0 8.2 5.2
2014-Dec-06 03:00N 55°24' W 005°30'0 0.0 1025.8 7.4 3.9
2014-Dec-06 02:00N 55°24' W 005°30'0 0.0 1025.9 7.4 3.1
2014-Dec-06 01:00N 55°24' W 005°30'0 0.0 1026.0 6.7 2.8
2014-Dec-06 00:00N 55°24' W 005°30'0 0.0 1025.8 6.3 2.7
2014-Dec-05 23:00N 55°24' W 005°30'0 0.0 1025.9 6.0 2.7
2014-Dec-05 22:00N 55°24' W 005°30'0 0.0 1025.1 6.6 2.1
2014-Dec-05 21:00N 55°24' W 005°30'0 0.0 1024.9 5.9 2.7
2014-Dec-05 20:00N 55°24' W 005°30'0 0.0 1024.5 5.7 1.8
2014-Dec-05 19:00N 55°24' W 005°30'0 0.0 1023.6 5.7 1.5
2014-Dec-05 18:00N 55°24' W 005°30'0 0.0 1023.3 6.2 0.9
2014-Dec-05 17:00N 55°24' W 005°30'0 0.0 1022.7 5.4 0.8
2014-Dec-05 16:00N 55°24' W 005°30'3 3.4 1021.7 6.3 0.7
2014-Dec-05 15:00N 55°24' W 005°24'1010.2 1020.4 5.9 1.2
2014-Dec-05 14:00N 55°24' W 005°06'1212.5 1019.8 6.5 1.4
2014-Dec-05 13:00N 55°36' W 005°00'1212.0 1019.3 5.9 1.8
2014-Dec-05 12:00N 55°48' W 005°00'7 6.9 1018.9 5.1 1.7
2014-Dec-05 11:00N 55°54' W 004°54'3 3.4 1018.4 4.1 1.0
2014-Dec-05 10:00N 55°54' W 004°48'0 0.0 1018.3 4.0 1.2
2014-Dec-05 09:00N 55°54' W 004°48'0 0.0 1017.7 3.9 0.7
2014-Dec-05 08:00N 55°54' W 004°48'0 0.0 1017.6 4.0 1.1
2014-Dec-05 07:00N 55°54' W 004°48'0 0.0 1016.8 4.9 1.2
2014-Dec-05 06:00N 55°54' W 004°48'0 0.0 1016.8 5.5 1.3
2014-Dec-05 05:00N 55°54' W 004°48'0 0.0 1016.5 5.5 1.9
2014-Dec-05 04:00N 55°54' W 004°48'0 0.0 1016.4 5.7 2.1
2014-Dec-05 03:00N 55°54' W 004°48'0 0.0 1016.4 5.9 2.5
2014-Dec-05 02:00N 55°54' W 004°48'0 0.0 1015.7 5.9 3.3
2014-Dec-05 01:00N 55°54' W 004°48'0 0.0 1015.1 5.8 3.8
2014-Dec-05 00:00N 55°54' W 004°48'0 0.0 1015.1 5.6 3.6
2014-Dec-04 23:00N 55°54' W 004°48'0 0.0 1015.3 5.8 3.5
2014-Dec-04 22:00N 55°54' W 004°48'0 0.0 1015.5 5.9 3.5
2014-Dec-04 21:00N 55°54' W 004°48'0 0.0 1015.8 5.8 3.3
2014-Dec-04 20:00N 55°54' W 004°48'0 0.0 1015.6 6.2 3.2
2014-Dec-04 19:00N 55°54' W 004°48'0 0.0 1015.5 6.5 3.2
2014-Dec-04 18:00N 55°54' W 004°48'0 0.0 1015.7 6.7 2.8
2014-Dec-04 17:00N 55°54' W 004°48'0 0.0 1015.7 7.2 3.7
2014-Dec-04 16:00N 55°54' W 004°48'0 0.0 1015.9 6.1 2.7
2014-Dec-04 15:00N 55°54' W 004°48'0 0.0 1016.0 7.0 3.2
2014-Dec-04 14:00N 55°54' W 004°48'0 0.0 1016.4 7.0 2.6
2014-Dec-04 12:00N 55°54' W 004°48'0 0.0 1017.2 7.4 3.5
2014-Dec-04 11:00N 55°54' W 004°48'0 0.0 1017.7 6.8 4.5
2014-Dec-04 10:00N 55°54' W 004°48'0 0.0 1017.9 6.6 4.3
2014-Dec-04 09:00N 55°54' W 004°48'0 0.0 1018.3 6.8 4.0
2014-Dec-04 08:00N 55°54' W 004°48'0 0.0 1018.4 7.0 4.1
2014-Dec-04 07:00N 55°54' W 004°48'0 0.0 1018.7 7.4 4.2
2014-Dec-04 06:00N 55°54' W 004°48'0 0.0 1019.3 8.0 3.8
2014-Dec-04 05:00N 55°54' W 004°48'0 0.0 1019.8 8.0 4.6
2014-Dec-04 04:00N 55°54' W 004°48'0 0.0 1020.3 8.1 4.8
2014-Dec-04 03:00N 55°54' W 004°48'0 0.0 1020.9 8.3 4.5
2014-Dec-04 02:00N 55°54' W 004°48'0 0.0 1021.2 8.1 4.5
2014-Dec-04 01:00N 55°54' W 004°48'0 0.0 1021.6 8.2 5.2
2014-Dec-04 00:00N 55°54' W 004°48'0 0.0 1022.3 8.5 6.1
2014-Dec-03 23:00N 55°54' W 004°48'0 0.0 1022.6 8.8 6.3
2014-Dec-03 22:00N 55°54' W 004°48'0 0.0 1023.1 8.5 6.0
2014-Dec-03 21:00N 55°54' W 004°48'0 0.0 1023.6 8.6 6.0
2014-Dec-03 20:00N 55°54' W 004°48'0 0.0 1023.8 8.4 6.3
2014-Dec-03 19:00N 55°54' W 004°48'0 0.0 1024.3 8.3 6.3
2014-Dec-03 18:00N 55°54' W 004°48'0 0.0 1024.9 8.5 6.5
2014-Dec-03 17:00N 55°54' W 004°48'0 0.0 1025.0 8.6 6.3
2014-Dec-03 16:00N 55°54' W 004°48'0 0.0 1025.4 8.8 6.5
2014-Dec-03 15:00N 55°54' W 004°48'0 0.0 1025.7 9.0 6.5
2014-Dec-03 14:00N 55°54' W 004°48'0 0.0 1026.0 9.5 6.6
2014-Dec-03 13:00N 55°54' W 004°48'0 0.0 1026.6 9.3 6.4
2014-Dec-03 12:00N 55°54' W 004°48'0 0.0 1026.8 9.3 6.0
2014-Dec-03 11:00N 55°54' W 004°48'0 0.0 1027.2 9.0 5.9
2014-Dec-03 10:00N 55°54' W 004°48'0 0.0 1027.1 8.6 5.6
2014-Dec-03 09:00N 55°54' W 004°48'0 0.0 1027.2 8.4 5.5
2014-Dec-03 08:00N 55°54' W 004°48'0 0.0 1027.1 7.8 5.2
2014-Dec-03 07:00N 55°54' W 004°48'0 0.0 1027.0 7.8 5.2
2014-Dec-03 06:00N 55°54' W 004°48'0 0.0 1027.4 7.6 5.3
2014-Dec-03 05:00N 55°54' W 004°48'0 0.0 1027.6 7.6 5.2
2014-Dec-03 04:00N 55°54' W 004°48'0 0.0 1028.0 6.7 4.7
2014-Dec-03 03:00N 55°54' W 004°48'0 0.0 1028.4 5.9 3.9
2014-Dec-03 02:00N 55°54' W 004°48'0 0.0 1028.3 5.6 3.4
2014-Dec-03 01:00N 55°54' W 004°48'0 0.0 1028.3 5.9 3.6
2014-Dec-03 00:00N 55°54' W 004°48'0 0.0 1028.5 5.7 3.2
2014-Dec-02 23:00N 55°54' W 004°48'0 0.0 1028.4 5.1 2.7
2014-Dec-02 22:00N 55°54' W 004°48'0 0.0 1028.3 4.9 2.5
2014-Dec-02 21:00N 55°54' W 004°48'0 0.0 1028.3 4.9 2.4
2014-Dec-02 20:00N 55°54' W 004°48'0 0.0 1028.1 4.9 2.2
2014-Dec-02 19:00N 55°54' W 004°48'0 0.0 1028.0 5.4 2.5
2014-Dec-02 18:00N 55°54' W 004°48'0 0.0 1027.8 5.4 1.9
2014-Dec-02 17:00N 55°54' W 004°48'0 0.0 1027.3 6.0 1.9
2014-Dec-02 16:00N 55°54' W 004°48'0 0.0 1027.0 6.5 1.7
2014-Dec-02 15:00N 55°54' W 004°48'0 0.0 1026.7 7.1 2.0
2014-Dec-02 14:00N 55°54' W 004°48'3 3.4 1026.5 8.0 1.9
2014-Dec-02 13:00N 55°54' W 004°54'7 6.7 1026.2 7.4 1.7
2014-Dec-02 12:00N 55°54' W 005°06'3 3.4 1025.9 6.4 2.7
2014-Dec-02 11:00N 55°54' W 005°12'6 6.0 1025.6 6.0 2.8
2014-Dec-02 10:00N 55°48' W 005°12'1212.5 1024.8 6.2 1.9
2014-Dec-02 09:00N 55°36' W 005°06'0 0.0 1024.3 7.2 1.5
2014-Dec-02 08:00N 55°36' W 005°06'0 0.0 1023.6 5.7 1.1
2014-Dec-02 07:00N 55°36' W 005°06'0 0.0 1022.5 7.5-1.0
2014-Dec-02 06:00N 55°36' W 005°06'0 0.0 1021.5 7.4-1.2
2014-Dec-02 05:00N 55°36' W 005°06'0 0.0 1020.3 7.8-1.7
2014-Dec-02 04:00N 55°36' W 005°06'0 0.0 1019.8 7.8-0.4
2014-Dec-02 03:00N 55°36' W 005°06'0 0.0 1019.1 7.4 0.4
2014-Dec-02 02:00N 55°36' W 005°06'0 0.0 1018.6 7.1 1.1
2014-Dec-02 01:00N 55°36' W 005°06'0 0.0 1018.0 8.1 1.5
2014-Dec-02 00:00N 55°36' W 005°06'0 0.0 1017.1 7.8 1.8
2014-Dec-01 23:00N 55°36' W 005°06'0 0.0 1016.4 8.6 2.6
2014-Dec-01 22:00N 55°36' W 005°06'0 0.0 1015.3 7.9 3.3
2014-Dec-01 21:00N 55°36' W 005°06'0 0.0 1014.6 8.7 2.3
2014-Dec-01 20:00N 55°36' W 005°06'9 9.0 1014.3 7.4 5.0
2014-Dec-01 19:00N 55°42' W 004°54'1212.5 1013.0 8.6 5.9
2014-Dec-01 18:00N 55°30' W 005°00'7 6.9 1012.6 9.5 6.6
2014-Dec-01 17:00N 55°24' W 005°06'1212.5 1012.2 9.5 8.0
2014-Dec-01 16:00N 55°12' W 005°12'1212.0 1012.2 9.7 8.1
2014-Dec-01 15:00N 55°00' W 005°12'6 6.0 1012.7 9.6 7.8
2014-Dec-01 14:00N 54°54' W 005°12'1212.0 1013.0 9.5 7.3
2014-Dec-01 13:00N 54°42' W 005°12'7 6.9 1013.5 9.8 6.7
2014-Dec-01 12:00N 54°36' W 005°06'1212.5 1014.1 10.0 6.4
2014-Dec-01 11:00N 54°24' W 005°00'1312.5 1014.9 9.4 6.3
2014-Dec-01 10:00N 54°12' W 004°54'6 6.0 1015.2 9.8 6.9
2014-Dec-01 09:00N 54°06' W 004°54'7 7.0 1015.0 9.9 7.2
2014-Dec-01 08:00N 54°06' W 004°42'0 0.0 1015.2 9.8 7.2
2014-Dec-01 07:00N 54°06' W 004°42'0 0.0 1015.2 10.0 7.5
2014-Dec-01 06:00N 54°06' W 004°42'0 0.0 1015.2 10.3 7.7
2014-Dec-01 05:00N 54°06' W 004°42'0 0.0 1015.5 10.1 7.7
2014-Dec-01 04:00N 54°06' W 004°42'0 0.0 1016.0 10.6 8.1
2014-Dec-01 03:00N 54°06' W 004°42'0 0.0 1016.3 11.3 8.2
2014-Dec-01 02:00N 54°06' W 004°42'0 0.0 1016.7 11.3 8.3
2014-Dec-01 01:00N 54°06' W 004°42'0 0.0 1017.0 11.4 8.5
2014-Dec-01 00:00N 54°06' W 004°42'0 0.0 1017.4 9.0 7.1
2014-Nov-30 23:00N 54°06' W 004°42'0 0.0 1017.5 8.8 6.7
2014-Nov-30 22:00N 54°06' W 004°42'0 0.0 1018.0 8.6 6.1
2014-Nov-30 21:00N 54°06' W 004°42'7 7.0 1017.8 9.1 6.5
2014-Nov-30 20:00N 54°06' W 004°30'9 9.2 1017.8 10.7 7.2
2014-Nov-30 19:00N 54°12' W 004°18'1212.0 1017.9 10.0 7.4
2014-Nov-30 18:00N 54°24' W 004°18'6 6.0 1017.9 10.7 7.7
2014-Nov-30 17:00N 54°30' W 004°18'1413.9 1017.4 10.5 7.4
2014-Nov-30 16:00N 54°42' W 004°06'6 6.0 1017.2 10.3 7.7
2014-Nov-30 15:00N 54°48' W 004°06'0 0.0 1017.2 10.8 7.5
2014-Nov-30 14:00N 54°48' W 004°06'0 0.0 1017.1 11.5 7.2
2014-Nov-30 13:00N 54°48' W 004°06'7 6.9 1017.0 9.9 6.5
2014-Nov-30 12:00N 54°48' W 004°18'0 0.0 1016.6 10.6 7.9
2014-Nov-30 11:00N 54°48' W 004°18'7 6.9 1016.5 9.5 6.8
2014-Nov-30 10:00N 54°42' W 004°24'1010.4 1016.5 12.1 8.1
2014-Nov-30 09:00N 54°42' W 004°42'7 6.9 1015.8 11.0 8.2
2014-Nov-30 08:00N 54°42' W 004°54'0 0.0 1014.7 9.7 7.2
2014-Nov-30 07:00N 54°42' W 004°54'0 0.0 1014.0 10.1 7.2
2014-Nov-30 06:00N 54°42' W 004°54'0 0.0 1014.0 10.6 7.4
2014-Nov-30 05:00N 54°42' W 004°54'0 0.0 1013.0 10.5 8.2
2014-Nov-30 04:00N 54°42' W 004°54'0 0.0 1012.9 10.4 8.2
2014-Nov-30 03:00N 54°42' W 004°54'0 0.0 1012.1 10.9 8.0
2014-Nov-30 02:00N 54°42' W 004°54'0 0.0 1011.5 10.6 8.3
2014-Nov-30 01:00N 54°42' W 004°54'0 0.0 1011.1 10.6 8.0
2014-Nov-30 00:00N 54°42' W 004°54'0 0.0 1011.0 10.8 7.7
2014-Nov-29 23:00N 54°42' W 004°54'   1011.1 10.1 7.2
Track history (hours):
 
Tides and Currents Weather Stations Pressure Air Temp Water Temp Dewpoint Dewpoint Depression Visibility Wind Speed Wind Dir Waves Ship Positions

Callsign AMOUK35 (name unknown)

Last reported at 2014-Dec-09 23:00 UTC. Time now 2014-Dec-19 16:32 UTC.
Position N 56°24' W 005°30'.
Warning: this ship's position is 9 days out of date.

Barometer 997.2 mb
Air temperature 5.6 ° C
Dewpoint 0.2 ° C

Date/timePositionNaut miles runAvg speedWind from/ knotsBaromVisibWave heightAir tempDewpointWater temp
2014-Dec-09 23:00N 56°24' W 005°30'0 0.0 997.2 5.6 0.2
2014-Dec-09 18:00N 56°24' W 005°30'0 0.0 998.6 5.9 2.3
2014-Dec-09 11:00N 56°24' W 005°30'0 0.0 1003.9 8.8 6.7
2014-Dec-09 10:00N 56°24' W 005°30'0 0.0 1005.8 8.3 5.9
2014-Dec-09 04:00N 56°24' W 005°30'0 0.0 1018.4 6.3 3.3
2014-Dec-09 02:00N 56°24' W 005°30'0 0.0 1021.1 5.6 2.5
2014-Dec-08 22:00N 56°24' W 005°30'0 0.0 1023.3 3.2 0.9
2014-Dec-08 21:00N 56°24' W 005°30'0 0.0 1022.9 2.8 0.6
2014-Dec-08 17:00N 56°24' W 005°30'0 0.0 1021.3 5.6 1.7
2014-Dec-08 14:00N 56°24' W 005°30'1413.7 1018.7 5.9 1.9
2014-Dec-08 13:00N 56°12' W 005°42'6 6.0 1018.1 5.4 2.0
2014-Dec-08 12:00N 56°06' W 005°42'1212.5 1017.2 6.2 1.7
2014-Dec-08 11:00N 55°54' W 005°48'7 6.9 1016.2 5.8 1.6
2014-Dec-08 10:00N 55°48' W 005°54'7 6.9 1014.7 7.9 2.7
2014-Dec-08 09:00N 55°42' W 006°00'0 0.0 1014.0 6.2 1.4
2014-Dec-08 08:00N 55°42' W 006°00'0 0.0 1012.7 6.2 1.5
2014-Dec-08 07:00N 55°42' W 006°00'0 0.0 1011.5 6.0 1.5
2014-Dec-08 06:00N 55°42' W 006°00'0 0.0 1011.0 4.1 0.6
2014-Dec-08 05:00N 55°42' W 006°00'0 0.0 1010.3 6.4 0.2
2014-Dec-08 04:00N 55°42' W 006°00'0 0.0 1010.4 5.2 0.6
2014-Dec-08 03:00N 55°42' W 006°00'0 0.0 1010.8 4.7 0.8
2014-Dec-08 02:00N 55°42' W 006°00'0 0.0 1010.1 4.9 0.3
2014-Dec-08 01:00N 55°42' W 006°00'0 0.0 1010.0 5.0 0.6
2014-Dec-08 00:00N 55°42' W 006°00'0 0.0 1009.8 5.1 1.4
2014-Dec-07 23:00N 55°42' W 006°00'0 0.0 1009.7 5.8 1.2
2014-Dec-07 22:00N 55°42' W 006°00'0 0.0 1009.9 5.7 1.6
2014-Dec-07 21:00N 55°42' W 006°00'0 0.0 1009.6 5.9 0.8
2014-Dec-07 20:00N 55°42' W 006°00'0 0.0 1009.9 5.0 1.3
2014-Dec-07 19:00N 55°42' W 006°00'0 0.0 1009.7 5.1-0.0
2014-Dec-07 18:00N 55°42' W 006°00'0 0.0 1009.3 5.7 0.6
2014-Dec-07 17:00N 55°42' W 006°00'0 0.0 1008.9 6.7 0.6
2014-Dec-07 16:00N 55°42' W 006°00'0 0.0 1008.7 5.6 1.2
2014-Dec-07 15:00N 55°42' W 006°00'0 0.0 1008.5 6.4 1.7
2014-Dec-07 14:00N 55°42' W 006°00'0 0.0 1008.8 5.3 1.3
2014-Dec-07 13:00N 55°42' W 006°00'0 0.0 1008.4 6.5 0.2
2014-Dec-07 12:00N 55°42' W 006°00'0 0.0 1008.7 6.4 1.2
2014-Dec-07 11:00N 55°42' W 006°00'0 0.0 1009.0 5.6 0.4
2014-Dec-07 10:00N 55°42' W 006°00'0 0.0 1008.6 6.1-0.1
2014-Dec-07 09:00N 55°42' W 006°00'0 0.0 1008.5 4.7 0.4
2014-Dec-07 08:00N 55°42' W 006°00'0 0.0 1008.1 3.8 0.8
2014-Dec-07 07:00N 55°42' W 006°00'0 0.0 1007.8 5.0-0.3
2014-Dec-07 06:00N 55°42' W 006°00'0 0.0 1007.4 5.0 0.8
2014-Dec-07 05:00N 55°42' W 006°00'0 0.0 1006.9 6.8 0.8
2014-Dec-07 04:00N 55°42' W 006°00'0 0.0 1007.5 6.8 2.4
2014-Dec-07 03:00N 55°42' W 006°00'0 0.0 1007.1 7.4 3.5
2014-Dec-07 02:00N 55°42' W 006°00'0 0.0 1007.3 8.3 4.7
2014-Dec-07 01:00N 55°42' W 006°00'0 0.0 1008.1 8.3 5.6
2014-Dec-07 00:00N 55°42' W 006°00'0 0.0 1008.6 10.0 6.5
2014-Dec-06 23:00N 55°42' W 006°00'0 0.0 1009.5 9.8 6.5
2014-Dec-06 22:00N 55°42' W 006°00'0 0.0 1010.4 10.1 7.3
2014-Dec-06 21:00N 55°42' W 006°00'0 0.0 1011.4 9.9 6.2
2014-Dec-06 20:00N 55°42' W 006°00'0 0.0 1012.7 9.3 6.9
2014-Dec-06 19:00N 55°42' W 006°00'0 0.0 1013.4 9.9 7.6
2014-Dec-06 18:00N 55°42' W 006°00'0 0.0 1013.3 9.8 7.7
2014-Dec-06 17:00N 55°42' W 006°00'0 0.0 1014.1 11.1 8.9
2014-Dec-06 16:00N 55°42' W 006°00'0 0.0 1014.9 11.2 9.0
2014-Dec-06 15:00N 55°42' W 006°00'6 6.0 1016.0 11.2 9.1
2014-Dec-06 14:00N 55°36' W 006°00'9 9.1 1017.7 10.2 8.6
2014-Dec-06 13:00N 55°30' W 006°12'9 9.1 1018.4 10.5 8.4
2014-Dec-06 12:00N 55°24' W 006°00'9 9.1 1019.9 9.5 7.1
2014-Dec-06 11:00N 55°18' W 005°48'1010.2 1021.6 9.1 6.3
2014-Dec-06 10:00N 55°18' W 005°30'6 6.0 1021.2 8.2 6.2
2014-Dec-06 09:00N 55°24' W 005°30'0 0.0 1022.6 9.2 5.7
2014-Dec-06 08:00N 55°24' W 005°30'0 0.0 1023.1 9.3 5.7
2014-Dec-06 07:00N 55°24' W 005°30'0 0.0 1024.0 9.1 5.8
2014-Dec-06 06:00N 55°24' W 005°30'0 0.0 1024.5 8.3 5.7
2014-Dec-06 05:00N 55°24' W 005°30'0 0.0 1025.0 8.2 5.2
2014-Dec-06 03:00N 55°24' W 005°30'0 0.0 1025.8 7.4 3.9
2014-Dec-06 02:00N 55°24' W 005°30'0 0.0 1025.9 7.4 3.1
2014-Dec-06 01:00N 55°24' W 005°30'0 0.0 1026.0 6.7 2.8
2014-Dec-06 00:00N 55°24' W 005°30'0 0.0 1025.8 6.3 2.7
2014-Dec-05 23:00N 55°24' W 005°30'0 0.0 1025.9 6.0 2.7
2014-Dec-05 22:00N 55°24' W 005°30'0 0.0 1025.1 6.6 2.1
2014-Dec-05 21:00N 55°24' W 005°30'0 0.0 1024.9 5.9 2.7
2014-Dec-05 20:00N 55°24' W 005°30'0 0.0 1024.5 5.7 1.8
2014-Dec-05 19:00N 55°24' W 005°30'0 0.0 1023.6 5.7 1.5
2014-Dec-05 18:00N 55°24' W 005°30'0 0.0 1023.3 6.2 0.9
2014-Dec-05 17:00N 55°24' W 005°30'0 0.0 1022.7 5.4 0.8
2014-Dec-05 16:00N 55°24' W 005°30'3 3.4 1021.7 6.3 0.7
2014-Dec-05 15:00N 55°24' W 005°24'1010.2 1020.4 5.9 1.2
2014-Dec-05 14:00N 55°24' W 005°06'1212.5 1019.8 6.5 1.4
2014-Dec-05 13:00N 55°36' W 005°00'1212.0 1019.3 5.9 1.8
2014-Dec-05 12:00N 55°48' W 005°00'7 6.9 1018.9 5.1 1.7
2014-Dec-05 11:00N 55°54' W 004°54'3 3.4 1018.4 4.1 1.0
2014-Dec-05 10:00N 55°54' W 004°48'0 0.0 1018.3 4.0 1.2
2014-Dec-05 09:00N 55°54' W 004°48'0 0.0 1017.7 3.9 0.7
2014-Dec-05 08:00N 55°54' W 004°48'0 0.0 1017.6 4.0 1.1
2014-Dec-05 07:00N 55°54' W 004°48'0 0.0 1016.8 4.9 1.2
2014-Dec-05 06:00N 55°54' W 004°48'0 0.0 1016.8 5.5 1.3
2014-Dec-05 05:00N 55°54' W 004°48'0 0.0 1016.5 5.5 1.9
2014-Dec-05 04:00N 55°54' W 004°48'0 0.0 1016.4 5.7 2.1
2014-Dec-05 03:00N 55°54' W 004°48'0 0.0 1016.4 5.9 2.5
2014-Dec-05 02:00N 55°54' W 004°48'0 0.0 1015.7 5.9 3.3
2014-Dec-05 01:00N 55°54' W 004°48'0 0.0 1015.1 5.8 3.8
2014-Dec-05 00:00N 55°54' W 004°48'0 0.0 1015.1 5.6 3.6
2014-Dec-04 23:00N 55°54' W 004°48'0 0.0 1015.3 5.8 3.5
2014-Dec-04 22:00N 55°54' W 004°48'0 0.0 1015.5 5.9 3.5
2014-Dec-04 21:00N 55°54' W 004°48'0 0.0 1015.8 5.8 3.3
2014-Dec-04 20:00N 55°54' W 004°48'0 0.0 1015.6 6.2 3.2
2014-Dec-04 19:00N 55°54' W 004°48'0 0.0 1015.5 6.5 3.2
2014-Dec-04 18:00N 55°54' W 004°48'0 0.0 1015.7 6.7 2.8
2014-Dec-04 17:00N 55°54' W 004°48'0 0.0 1015.7 7.2 3.7
2014-Dec-04 16:00N 55°54' W 004°48'0 0.0 1015.9 6.1 2.7
2014-Dec-04 15:00N 55°54' W 004°48'0 0.0 1016.0 7.0 3.2
2014-Dec-04 14:00N 55°54' W 004°48'0 0.0 1016.4 7.0 2.6
2014-Dec-04 12:00N 55°54' W 004°48'0 0.0 1017.2 7.4 3.5
2014-Dec-04 11:00N 55°54' W 004°48'0 0.0 1017.7 6.8 4.5
2014-Dec-04 10:00N 55°54' W 004°48'0 0.0 1017.9 6.6 4.3
2014-Dec-04 09:00N 55°54' W 004°48'0 0.0 1018.3 6.8 4.0
2014-Dec-04 08:00N 55°54' W 004°48'0 0.0 1018.4 7.0 4.1
2014-Dec-04 07:00N 55°54' W 004°48'0 0.0 1018.7 7.4 4.2
2014-Dec-04 06:00N 55°54' W 004°48'0 0.0 1019.3 8.0 3.8
2014-Dec-04 05:00N 55°54' W 004°48'0 0.0 1019.8 8.0 4.6
2014-Dec-04 04:00N 55°54' W 004°48'0 0.0 1020.3 8.1 4.8
2014-Dec-04 03:00N 55°54' W 004°48'0 0.0 1020.9 8.3 4.5
2014-Dec-04 02:00N 55°54' W 004°48'0 0.0 1021.2 8.1 4.5
2014-Dec-04 01:00N 55°54' W 004°48'0 0.0 1021.6 8.2 5.2
2014-Dec-04 00:00N 55°54' W 004°48'0 0.0 1022.3 8.5 6.1
2014-Dec-03 23:00N 55°54' W 004°48'0 0.0 1022.6 8.8 6.3
2014-Dec-03 22:00N 55°54' W 004°48'0 0.0 1023.1 8.5 6.0
2014-Dec-03 21:00N 55°54' W 004°48'0 0.0 1023.6 8.6 6.0
2014-Dec-03 20:00N 55°54' W 004°48'0 0.0 1023.8 8.4 6.3
2014-Dec-03 19:00N 55°54' W 004°48'0 0.0 1024.3 8.3 6.3
2014-Dec-03 18:00N 55°54' W 004°48'0 0.0 1024.9 8.5 6.5
2014-Dec-03 17:00N 55°54' W 004°48'0 0.0 1025.0 8.6 6.3
2014-Dec-03 16:00N 55°54' W 004°48'0 0.0 1025.4 8.8 6.5
2014-Dec-03 15:00N 55°54' W 004°48'0 0.0 1025.7 9.0 6.5
2014-Dec-03 14:00N 55°54' W 004°48'0 0.0 1026.0 9.5 6.6
2014-Dec-03 13:00N 55°54' W 004°48'0 0.0 1026.6 9.3 6.4
2014-Dec-03 12:00N 55°54' W 004°48'0 0.0 1026.8 9.3 6.0
2014-Dec-03 11:00N 55°54' W 004°48'0 0.0 1027.2 9.0 5.9
2014-Dec-03 10:00N 55°54' W 004°48'0 0.0 1027.1 8.6 5.6
2014-Dec-03 09:00N 55°54' W 004°48'0 0.0 1027.2 8.4 5.5
2014-Dec-03 08:00N 55°54' W 004°48'0 0.0 1027.1 7.8 5.2
2014-Dec-03 07:00N 55°54' W 004°48'0 0.0 1027.0 7.8 5.2
2014-Dec-03 06:00N 55°54' W 004°48'0 0.0 1027.4 7.6 5.3
2014-Dec-03 05:00N 55°54' W 004°48'0 0.0 1027.6 7.6 5.2
2014-Dec-03 04:00N 55°54' W 004°48'0 0.0 1028.0 6.7 4.7
2014-Dec-03 03:00N 55°54' W 004°48'0 0.0 1028.4 5.9 3.9
2014-Dec-03 02:00N 55°54' W 004°48'0 0.0 1028.3 5.6 3.4
2014-Dec-03 01:00N 55°54' W 004°48'0 0.0 1028.3 5.9 3.6
2014-Dec-03 00:00N 55°54' W 004°48'0 0.0 1028.5 5.7 3.2
2014-Dec-02 23:00N 55°54' W 004°48'0 0.0 1028.4 5.1 2.7
2014-Dec-02 22:00N 55°54' W 004°48'0 0.0 1028.3 4.9 2.5
2014-Dec-02 21:00N 55°54' W 004°48'0 0.0 1028.3 4.9 2.4
2014-Dec-02 20:00N 55°54' W 004°48'0 0.0 1028.1 4.9 2.2
2014-Dec-02 19:00N 55°54' W 004°48'0 0.0 1028.0 5.4 2.5
2014-Dec-02 18:00N 55°54' W 004°48'0 0.0 1027.8 5.4 1.9
2014-Dec-02 17:00N 55°54' W 004°48'0 0.0 1027.3 6.0 1.9
2014-Dec-02 16:00N 55°54' W 004°48'0 0.0 1027.0 6.5 1.7
2014-Dec-02 15:00N 55°54' W 004°48'0 0.0 1026.7 7.1 2.0
2014-Dec-02 14:00N 55°54' W 004°48'3 3.4 1026.5 8.0 1.9
2014-Dec-02 13:00N 55°54' W 004°54'7 6.7 1026.2 7.4 1.7
2014-Dec-02 12:00N 55°54' W 005°06'3 3.4 1025.9 6.4 2.7
2014-Dec-02 11:00N 55°54' W 005°12'6 6.0 1025.6 6.0 2.8
2014-Dec-02 10:00N 55°48' W 005°12'1212.5 1024.8 6.2 1.9
2014-Dec-02 09:00N 55°36' W 005°06'0 0.0 1024.3 7.2 1.5
2014-Dec-02 08:00N 55°36' W 005°06'0 0.0 1023.6 5.7 1.1
2014-Dec-02 07:00N 55°36' W 005°06'0 0.0 1022.5 7.5-1.0
2014-Dec-02 06:00N 55°36' W 005°06'0 0.0 1021.5 7.4-1.2
2014-Dec-02 05:00N 55°36' W 005°06'0 0.0 1020.3 7.8-1.7
2014-Dec-02 04:00N 55°36' W 005°06'0 0.0 1019.8 7.8-0.4
2014-Dec-02 03:00N 55°36' W 005°06'0 0.0 1019.1 7.4 0.4
2014-Dec-02 02:00N 55°36' W 005°06'0 0.0 1018.6 7.1 1.1
2014-Dec-02 01:00N 55°36' W 005°06'0 0.0 1018.0 8.1 1.5
2014-Dec-02 00:00N 55°36' W 005°06'0 0.0 1017.1 7.8 1.8
2014-Dec-01 23:00N 55°36' W 005°06'0 0.0 1016.4 8.6 2.6
2014-Dec-01 22:00N 55°36' W 005°06'0 0.0 1015.3 7.9 3.3
2014-Dec-01 21:00N 55°36' W 005°06'0 0.0 1014.6 8.7 2.3
2014-Dec-01 20:00N 55°36' W 005°06'9 9.0 1014.3 7.4 5.0
2014-Dec-01 19:00N 55°42' W 004°54'1212.5 1013.0 8.6 5.9
2014-Dec-01 18:00N 55°30' W 005°00'7 6.9 1012.6 9.5 6.6
2014-Dec-01 17:00N 55°24' W 005°06'1212.5 1012.2 9.5 8.0
2014-Dec-01 16:00N 55°12' W 005°12'1212.0 1012.2 9.7 8.1
2014-Dec-01 15:00N 55°00' W 005°12'6 6.0 1012.7 9.6 7.8
2014-Dec-01 14:00N 54°54' W 005°12'1212.0 1013.0 9.5 7.3
2014-Dec-01 13:00N 54°42' W 005°12'7 6.9 1013.5 9.8 6.7
2014-Dec-01 12:00N 54°36' W 005°06'1212.5 1014.1 10.0 6.4
2014-Dec-01 11:00N 54°24' W 005°00'1312.5 1014.9 9.4 6.3
2014-Dec-01 10:00N 54°12' W 004°54'6 6.0 1015.2 9.8 6.9
2014-Dec-01 09:00N 54°06' W 004°54'7 7.0 1015.0 9.9 7.2
2014-Dec-01 08:00N 54°06' W 004°42'0 0.0 1015.2 9.8 7.2
2014-Dec-01 07:00N 54°06' W 004°42'0 0.0 1015.2 10.0 7.5
2014-Dec-01 06:00N 54°06' W 004°42'0 0.0 1015.2 10.3 7.7
2014-Dec-01 05:00N 54°06' W 004°42'0 0.0 1015.5 10.1 7.7
2014-Dec-01 04:00N 54°06' W 004°42'0 0.0 1016.0 10.6 8.1
2014-Dec-01 03:00N 54°06' W 004°42'0 0.0 1016.3 11.3 8.2
2014-Dec-01 02:00N 54°06' W 004°42'0 0.0 1016.7 11.3 8.3
2014-Dec-01 01:00N 54°06' W 004°42'0 0.0 1017.0 11.4 8.5
2014-Dec-01 00:00N 54°06' W 004°42'0 0.0 1017.4 9.0 7.1
2014-Nov-30 23:00N 54°06' W 004°42'0 0.0 1017.5 8.8 6.7
2014-Nov-30 22:00N 54°06' W 004°42'0 0.0 1018.0 8.6 6.1
2014-Nov-30 21:00N 54°06' W 004°42'7 7.0 1017.8 9.1 6.5
2014-Nov-30 20:00N 54°06' W 004°30'9 9.2 1017.8 10.7 7.2
2014-Nov-30 19:00N 54°12' W 004°18'1212.0 1017.9 10.0 7.4
2014-Nov-30 18:00N 54°24' W 004°18'6 6.0 1017.9 10.7 7.7
2014-Nov-30 17:00N 54°30' W 004°18'1413.9 1017.4 10.5 7.4
2014-Nov-30 16:00N 54°42' W 004°06'6 6.0 1017.2 10.3 7.7
2014-Nov-30 15:00N 54°48' W 004°06'0 0.0 1017.2 10.8 7.5
2014-Nov-30 14:00N 54°48' W 004°06'0 0.0 1017.1 11.5 7.2
2014-Nov-30 13:00N 54°48' W 004°06'7 6.9 1017.0 9.9 6.5
2014-Nov-30 12:00N 54°48' W 004°18'0 0.0 1016.6 10.6 7.9
2014-Nov-30 11:00N 54°48' W 004°18'7 6.9 1016.5 9.5 6.8
2014-Nov-30 10:00N 54°42' W 004°24'1010.4 1016.5 12.1 8.1
2014-Nov-30 09:00N 54°42' W 004°42'7 6.9 1015.8 11.0 8.2
2014-Nov-30 08:00N 54°42' W 004°54'0 0.0 1014.7 9.7 7.2
2014-Nov-30 07:00N 54°42' W 004°54'0 0.0 1014.0 10.1 7.2
2014-Nov-30 06:00N 54°42' W 004°54'0 0.0 1014.0 10.6 7.4
2014-Nov-30 05:00N 54°42' W 004°54'0 0.0 1013.0 10.5 8.2
2014-Nov-30 04:00N 54°42' W 004°54'0 0.0 1012.9 10.4 8.2
2014-Nov-30 03:00N 54°42' W 004°54'0 0.0 1012.1 10.9 8.0
2014-Nov-30 02:00N 54°42' W 004°54'0 0.0 1011.5 10.6 8.3
2014-Nov-30 01:00N 54°42' W 004°54'0 0.0 1011.1 10.6 8.0
2014-Nov-30 00:00N 54°42' W 004°54'0 0.0 1011.0 10.8 7.7
2014-Nov-29 23:00N 54°42' W 004°54'   1011.1 10.1 7.2

Dump ship's entire track history